createdAt,value
2023-04-30T00:00:27.315Z,74.10
2023-04-30T00:02:55.377Z,74.27
2023-04-30T00:05:24.388Z,74.33
2023-04-30T00:07:51.854Z,74.20
2023-04-30T00:10:19.368Z,74.29
2023-04-30T00:12:46.830Z,74.30
2023-04-30T00:15:14.330Z,74.20
2023-04-30T00:17:41.862Z,73.71
2023-04-30T00:20:10.031Z,73.60
2023-04-30T00:22:38.988Z,73.82
2023-04-30T00:25:06.789Z,73.79
2023-04-30T00:27:34.227Z,74.42
2023-04-30T00:30:01.688Z,74.15
2023-04-30T00:32:29.215Z,74.11
2023-04-30T00:34:56.654Z,73.97
2023-04-30T00:37:24.095Z,74.05
2023-04-30T00:39:53.143Z,74.07
2023-04-30T00:42:20.726Z,74.44
2023-04-30T00:44:48.189Z,73.89
2023-04-30T00:47:15.697Z,74.26
2023-04-30T00:49:43.154Z,73.88
2023-04-30T00:52:10.614Z,74.08
2023-04-30T00:54:38.380Z,73.90
2023-04-30T00:57:08.723Z,73.87
2023-04-30T00:59:36.340Z,73.74
2023-04-30T01:02:04.163Z,74.28
2023-04-30T01:04:33.042Z,74.30
2023-04-30T01:07:02.065Z,74.30
2023-04-30T01:09:29.853Z,74.34
2023-04-30T01:12:03.362Z,74.37
2023-04-30T01:14:35.307Z,74.79
2023-04-30T01:17:06.939Z,74.53
2023-04-30T01:19:39.407Z,74.62
2023-04-30T01:22:10.951Z,74.75
2023-04-30T01:25:06.216Z,74.89
2023-04-30T01:27:57.820Z,75.37
2023-04-30T01:30:26.350Z,75.24
2023-04-30T01:32:53.909Z,75.69
2023-04-30T01:35:21.554Z,76.31
2023-04-30T01:37:55.903Z,76.22
2023-04-30T01:40:25.654Z,76.93
2023-04-30T01:43:02.999Z,77.32
2023-04-30T01:45:42.528Z,77.24
2023-04-30T01:48:20.401Z,76.91
2023-04-30T01:50:49.837Z,76.57
2023-04-30T01:53:19.872Z,76.42
2023-04-30T01:55:51.895Z,77.23
2023-04-30T01:58:21.610Z,77.08
2023-04-30T02:00:49.089Z,77.13
2023-04-30T02:03:16.560Z,77.12
2023-04-30T02:05:44.058Z,77.57
2023-04-30T02:08:11.531Z,78.04
2023-04-30T02:10:38.984Z,78.00
2023-04-30T02:13:06.484Z,77.90
2023-04-30T02:15:35.309Z,78.61
2023-04-30T02:18:02.820Z,78.99
2023-04-30T02:20:30.400Z,78.80
2023-04-30T02:22:57.888Z,78.84
2023-04-30T02:25:26.263Z,78.75
2023-04-30T02:27:53.772Z,78.40
2023-04-30T02:30:21.237Z,78.78
2023-04-30T02:32:50.087Z,79.25
2023-04-30T02:35:17.582Z,79.42
2023-04-30T02:37:45.005Z,79.21
2023-04-30T02:40:13.194Z,80.02
2023-04-30T02:42:40.665Z,80.15
2023-04-30T02:45:09.013Z,80.11
2023-04-30T02:47:36.629Z,79.57
2023-04-30T02:50:06.368Z,78.78
2023-04-30T02:52:33.853Z,79.40
2023-04-30T02:55:01.266Z,80.09
2023-04-30T02:57:28.684Z,79.78
2023-04-30T02:59:56.531Z,80.51
2023-04-30T03:02:24.393Z,79.77
2023-04-30T03:04:51.864Z,80.02
2023-04-30T03:07:20.684Z,80.09
2023-04-30T03:09:48.188Z,80.73
2023-04-30T03:12:15.707Z,81.18
2023-04-30T03:14:43.179Z,81.20
2023-04-30T03:17:10.641Z,81.16
2023-04-30T03:19:38.185Z,81.12
2023-04-30T03:22:05.640Z,81.02
2023-04-30T03:24:34.419Z,80.73
2023-04-30T03:27:01.928Z,80.76
2023-04-30T03:29:29.366Z,80.70
2023-04-30T03:31:57.329Z,80.89
2023-04-30T03:34:24.855Z,81.22
2023-04-30T03:36:52.279Z,81.64
2023-04-30T03:39:19.737Z,82.04
2023-04-30T03:41:48.507Z,81.52
2023-04-30T03:44:16.300Z,81.83
2023-04-30T03:46:44.127Z,80.25
2023-04-30T03:49:11.909Z,80.30
2023-04-30T03:51:41.665Z,81.12
2023-04-30T03:54:09.275Z,80.87
2023-04-30T03:56:37.321Z,80.59
2023-04-30T03:59:06.391Z,80.65
2023-04-30T04:01:33.957Z,81.08
2023-04-30T04:04:02.651Z,80.89
2023-04-30T04:06:30.466Z,81.66
2023-04-30T04:08:57.964Z,81.40
2023-04-30T04:11:25.612Z,80.96
2023-04-30T04:13:53.095Z,81.43
2023-04-30T04:16:22.175Z,81.47
2023-04-30T04:18:49.748Z,81.71
2023-04-30T04:21:17.641Z,81.29
2023-04-30T04:23:45.061Z,81.21
2023-04-30T04:26:12.600Z,82.44
2023-04-30T04:28:40.110Z,82.56
2023-04-30T04:31:07.827Z,81.65
2023-04-30T04:33:37.036Z,82.38
2023-04-30T04:36:05.153Z,81.42
2023-04-30T04:38:32.574Z,81.10
2023-04-30T04:41:00.023Z,81.16
2023-04-30T04:43:27.532Z,81.06
2023-04-30T04:45:55.053Z,82.12
2023-04-30T04:48:22.512Z,81.57
2023-04-30T04:50:51.568Z,81.85
2023-04-30T04:53:19.027Z,81.64
2023-04-30T04:55:46.449Z,81.53
2023-04-30T04:58:13.888Z,81.52
2023-04-30T05:00:41.325Z,81.21
2023-04-30T05:03:09.351Z,81.25
2023-04-30T05:05:36.921Z,81.54
2023-04-30T05:08:06.128Z,81.27
2023-04-30T05:10:34.781Z,81.38
2023-04-30T05:13:02.294Z,80.16
2023-04-30T05:15:29.777Z,80.98
2023-04-30T05:17:57.243Z,80.18
2023-04-30T05:20:24.736Z,80.81
2023-04-30T05:22:52.206Z,79.49
2023-04-30T05:25:21.046Z,79.96
2023-04-30T05:27:48.480Z,79.09
2023-04-30T05:30:16.506Z,79.72
2023-04-30T05:32:50.525Z,79.67
2023-04-30T05:35:18.158Z,78.73
2023-04-30T05:37:45.648Z,79.46
2023-04-30T05:40:14.929Z,79.28
2023-04-30T05:42:44.436Z,78.11
2023-04-30T05:45:15.856Z,78.09
2023-04-30T05:47:43.404Z,78.85
2023-04-30T05:50:11.186Z,78.09
2023-04-30T05:52:38.624Z,77.24
2023-04-30T05:55:07.035Z,76.96
2023-04-30T05:57:35.200Z,77.33
2023-04-30T06:00:06.498Z,76.87
2023-04-30T06:02:34.109Z,76.82
2023-04-30T06:05:03.302Z,76.33
2023-04-30T06:07:30.913Z,76.27
2023-04-30T06:09:58.716Z,75.28
2023-04-30T06:12:26.392Z,75.54
2023-04-30T06:14:53.890Z,75.42
2023-04-30T06:17:22.728Z,74.72
2023-04-30T06:19:50.215Z,73.87
2023-04-30T06:22:17.670Z,74.22
2023-04-30T06:24:45.439Z,73.31
2023-04-30T06:27:12.896Z,73.38
2023-04-30T06:29:40.418Z,73.12
2023-04-30T06:32:08.633Z,72.78
2023-04-30T06:34:37.717Z,72.23
2023-04-30T06:37:05.637Z,72.27
2023-04-30T06:39:33.062Z,73.03
2023-04-30T06:42:01.002Z,72.17
2023-04-30T06:44:28.467Z,72.00
2023-04-30T06:46:56.302Z,71.80
2023-04-30T06:49:23.864Z,71.83
2023-04-30T06:51:52.751Z,71.15
2023-04-30T06:54:22.697Z,70.97
2023-04-30T06:56:50.399Z,69.70
2023-04-30T06:59:17.865Z,70.31
2023-04-30T07:01:45.318Z,69.91
2023-04-30T07:04:13.121Z,69.60
2023-04-30T07:06:40.635Z,69.38
2023-04-30T07:09:09.557Z,68.97
2023-04-30T07:11:37.005Z,67.60
2023-04-30T07:14:06.901Z,68.20
2023-04-30T07:16:35.505Z,67.19
2023-04-30T07:19:03.377Z,68.09
2023-04-30T07:21:32.653Z,66.43
2023-04-30T07:24:00.302Z,66.66
2023-04-30T07:26:29.277Z,66.65
2023-04-30T07:28:56.780Z,66.23
2023-04-30T07:31:24.601Z,66.84
2023-04-30T07:33:52.219Z,66.24
2023-04-30T07:36:19.704Z,66.54
2023-04-30T07:38:47.167Z,64.86
2023-04-30T07:41:14.727Z,65.73
2023-04-30T07:43:43.505Z,64.92
2023-04-30T07:46:11.006Z,64.96
2023-04-30T07:48:39.026Z,65.13
2023-04-30T07:51:06.597Z,64.45
2023-04-30T07:53:34.075Z,64.90
2023-04-30T07:56:01.533Z,64.64
2023-04-30T07:58:28.977Z,64.41
2023-04-30T08:00:57.831Z,64.27
2023-04-30T08:03:25.465Z,63.74
2023-04-30T08:05:53.189Z,63.46
2023-04-30T08:08:20.848Z,62.48
2023-04-30T08:10:48.339Z,61.00
2023-04-30T08:13:16.101Z,60.85
2023-04-30T08:15:43.716Z,60.89
2023-04-30T08:18:12.584Z,61.75
2023-04-30T08:20:40.405Z,60.69
2023-04-30T08:23:07.978Z,60.72
2023-04-30T08:25:36.027Z,60.11
2023-04-30T08:28:03.517Z,61.21
2023-04-30T08:30:30.971Z,61.23
2023-04-30T08:32:58.498Z,59.94
2023-04-30T08:35:29.644Z,59.12
2023-04-30T08:37:57.178Z,59.34
2023-04-30T08:40:43.509Z,59.53
2023-04-30T08:43:13.470Z,59.79
2023-04-30T08:45:41.608Z,59.18
2023-04-30T08:48:12.316Z,58.76
2023-04-30T08:50:41.262Z,59.20
2023-04-30T08:53:09.253Z,58.57
2023-04-30T08:55:37.599Z,57.96
2023-04-30T08:58:05.710Z,57.73
2023-04-30T09:00:33.985Z,58.72
2023-04-30T09:03:02.330Z,57.67
2023-04-30T09:05:30.972Z,58.25
2023-04-30T09:08:03.631Z,56.70
2023-04-30T09:10:33.697Z,57.32
2023-04-30T09:13:01.790Z,55.42
2023-04-30T09:15:29.621Z,55.98
2023-04-30T09:18:08.143Z,56.15
2023-04-30T09:20:35.800Z,55.28
2023-04-30T09:23:08.814Z,55.55
2023-04-30T09:25:40.775Z,55.92
2023-04-30T09:28:10.079Z,53.96
2023-04-30T09:30:37.887Z,54.32
2023-04-30T09:33:05.703Z,55.76
2023-04-30T09:35:34.883Z,53.34
2023-04-30T09:38:03.163Z,52.45
2023-04-30T09:40:41.284Z,52.49
2023-04-30T09:43:09.158Z,52.49
2023-04-30T09:45:44.543Z,52.23
2023-04-30T09:48:17.132Z,52.61
2023-04-30T09:50:47.178Z,52.66
2023-04-30T09:53:17.742Z,53.30
2023-04-30T09:55:48.347Z,51.73
2023-04-30T09:58:17.609Z,51.53
2023-04-30T10:00:46.842Z,51.75
2023-04-30T10:03:15.671Z,50.70
2023-04-30T10:05:46.814Z,49.24
2023-04-30T10:08:19.108Z,49.90
2023-04-30T10:10:51.985Z,49.75
2023-04-30T10:13:21.394Z,50.53
2023-04-30T10:15:51.368Z,50.09
2023-04-30T10:18:20.717Z,49.83
2023-04-30T10:20:49.870Z,49.91
2023-04-30T10:23:18.487Z,50.40
2023-04-30T10:25:48.389Z,50.01
2023-04-30T10:28:16.681Z,50.74
2023-04-30T10:30:46.152Z,50.87
2023-04-30T10:33:18.580Z,50.02
2023-04-30T10:35:48.761Z,50.48
2023-04-30T10:38:23.046Z,50.66
2023-04-30T10:40:52.005Z,49.93
2023-04-30T10:43:21.992Z,48.79
2023-04-30T10:45:49.724Z,48.96
2023-04-30T10:48:24.322Z,48.95
2023-04-30T10:50:52.629Z,48.81
2023-04-30T10:53:22.773Z,49.08
2023-04-30T10:55:55.700Z,48.70
2023-04-30T10:58:27.548Z,48.37
2023-04-30T11:01:02.772Z,48.49
2023-04-30T11:03:31.272Z,48.11
2023-04-30T11:05:59.996Z,48.47
2023-04-30T11:08:35.172Z,47.87
2023-04-30T11:11:05.192Z,46.60
2023-04-30T11:13:42.966Z,46.94
2023-04-30T11:16:10.828Z,47.83
2023-04-30T11:18:43.450Z,46.90
2023-04-30T11:21:11.674Z,47.07
2023-04-30T11:23:42.936Z,46.19
2023-04-30T11:26:12.047Z,45.69
2023-04-30T11:28:39.590Z,46.81
2023-04-30T11:31:07.227Z,45.95
2023-04-30T11:33:35.486Z,46.16
2023-04-30T11:36:03.613Z,46.11
2023-04-30T11:38:32.283Z,45.32
2023-04-30T11:41:00.441Z,45.74
2023-04-30T11:43:30.930Z,44.31
2023-04-30T11:46:02.873Z,45.04
2023-04-30T11:48:34.551Z,44.87
2023-04-30T11:51:04.829Z,44.21
2023-04-30T11:53:32.911Z,43.94
2023-04-30T11:56:03.913Z,43.06
2023-04-30T11:58:37.913Z,42.11
2023-04-30T12:01:06.335Z,41.73
2023-04-30T12:03:33.934Z,42.80
2023-04-30T12:06:02.313Z,43.26
2023-04-30T12:08:29.938Z,42.23
2023-04-30T12:10:57.405Z,40.95
2023-04-30T12:13:24.842Z,41.12
2023-04-30T12:16:00.274Z,41.03
2023-04-30T12:18:28.004Z,41.88
2023-04-30T12:20:55.618Z,40.55
2023-04-30T12:23:23.206Z,40.14
2023-04-30T12:25:50.750Z,40.96
2023-04-30T12:28:18.204Z,40.74
2023-04-30T12:30:46.776Z,41.68
2023-04-30T12:33:18.901Z,40.25
2023-04-30T12:35:46.566Z,40.12
2023-04-30T12:38:17.806Z,40.53
2023-04-30T12:40:48.574Z,40.60
2023-04-30T12:43:17.633Z,39.66
2023-04-30T12:45:46.980Z,40.02
2023-04-30T12:48:17.043Z,40.01
2023-04-30T12:50:48.774Z,41.29
2023-04-30T12:53:16.269Z,39.91
2023-04-30T12:55:43.705Z,40.13
2023-04-30T12:58:12.258Z,40.02
2023-04-30T13:00:47.000Z,39.47
2023-04-30T13:03:17.547Z,39.76
2023-04-30T13:05:48.245Z,39.84
2023-04-30T13:08:16.045Z,40.03
2023-04-30T13:10:43.711Z,39.20
2023-04-30T13:13:11.479Z,40.19
2023-04-30T13:15:38.985Z,40.05
2023-04-30T13:18:08.750Z,39.47
2023-04-30T13:20:38.008Z,39.13
2023-04-30T13:23:05.501Z,39.03
2023-04-30T13:25:33.427Z,38.50
2023-04-30T13:28:00.988Z,39.66
2023-04-30T13:30:28.552Z,40.32
2023-04-30T13:32:56.282Z,40.02
2023-04-30T13:35:24.028Z,39.58
2023-04-30T13:37:53.559Z,39.51
2023-04-30T13:40:21.806Z,39.47
2023-04-30T13:42:49.897Z,39.01
2023-04-30T13:45:17.454Z,39.41
2023-04-30T13:47:45.210Z,39.45
2023-04-30T13:50:12.884Z,39.22
2023-04-30T13:52:40.462Z,39.46
2023-04-30T13:55:10.532Z,39.63
2023-04-30T13:57:38.421Z,39.94
2023-04-30T14:00:08.000Z,39.27
2023-04-30T14:02:35.654Z,38.68
2023-04-30T14:05:06.593Z,38.76
2023-04-30T14:07:34.976Z,39.45
2023-04-30T14:10:02.437Z,39.16
2023-04-30T14:12:31.430Z,38.66
2023-04-30T14:14:59.220Z,38.62
2023-04-30T14:17:28.234Z,38.16
2023-04-30T14:19:55.886Z,38.18
2023-04-30T14:22:24.426Z,38.30
2023-04-30T14:24:53.015Z,38.45
2023-04-30T14:27:21.153Z,38.62
2023-04-30T14:29:49.962Z,39.03
2023-04-30T14:32:17.467Z,39.25
2023-04-30T14:34:44.926Z,39.39
2023-04-30T14:37:12.441Z,38.72
2023-04-30T14:39:39.868Z,39.12
2023-04-30T14:42:07.307Z,39.11
2023-04-30T14:44:34.785Z,38.98
2023-04-30T14:47:04.049Z,39.01
2023-04-30T14:49:31.642Z,38.87
2023-04-30T14:51:59.113Z,38.66
2023-04-30T14:54:26.629Z,38.78
2023-04-30T14:56:54.132Z,39.27
2023-04-30T14:59:21.683Z,39.32
2023-04-30T15:01:49.314Z,38.89
2023-04-30T15:04:18.179Z,39.23
2023-04-30T15:06:45.752Z,39.27
2023-04-30T15:09:13.719Z,39.33
2023-04-30T15:11:41.223Z,39.22
2023-04-30T15:14:08.682Z,38.69
2023-04-30T15:16:36.493Z,39.17
2023-04-30T15:19:03.995Z,38.27
2023-04-30T15:21:32.833Z,38.49
2023-04-30T15:24:00.324Z,37.97
2023-04-30T15:26:29.142Z,38.12
2023-04-30T15:28:57.190Z,38.90
2023-04-30T15:31:25.169Z,38.09
2023-04-30T15:33:52.695Z,38.77
2023-04-30T15:36:22.193Z,38.73
2023-04-30T15:38:50.998Z,38.89
2023-04-30T15:41:18.425Z,39.09
2023-04-30T15:43:45.959Z,39.51
2023-04-30T15:46:13.534Z,39.48
2023-04-30T15:48:41.087Z,39.50
2023-04-30T15:51:08.817Z,39.42
2023-04-30T15:53:36.370Z,39.66
2023-04-30T15:56:05.673Z,39.64
2023-04-30T15:58:33.148Z,39.42
2023-04-30T16:01:01.227Z,39.57
2023-04-30T16:03:28.769Z,39.49
2023-04-30T16:05:56.337Z,40.36
2023-04-30T16:08:23.844Z,40.43
2023-04-30T16:10:51.379Z,38.85
2023-04-30T16:13:20.190Z,39.26
2023-04-30T16:15:47.634Z,39.18
2023-04-30T16:18:15.081Z,39.70
2023-04-30T16:20:42.852Z,39.70
2023-04-30T16:23:10.333Z,39.55
2023-04-30T16:25:37.778Z,39.79
2023-04-30T16:28:05.561Z,39.28
2023-04-30T16:30:35.294Z,39.66
2023-04-30T16:33:02.995Z,39.67
2023-04-30T16:35:31.158Z,40.80
2023-04-30T16:37:58.696Z,40.71
2023-04-30T16:40:26.184Z,41.07
2023-04-30T16:42:53.666Z,40.89
2023-04-30T16:45:21.276Z,40.31
2023-04-30T16:47:50.126Z,40.73
2023-04-30T16:50:18.343Z,40.82
2023-04-30T16:52:45.880Z,40.78
2023-04-30T16:55:13.329Z,41.10
2023-04-30T16:57:41.163Z,40.94
2023-04-30T17:00:11.322Z,41.21
2023-04-30T17:02:40.782Z,41.14
2023-04-30T17:05:10.756Z,41.27
2023-04-30T17:07:38.244Z,41.47
2023-04-30T17:10:07.428Z,41.23
2023-04-30T17:12:34.847Z,41.55
2023-04-30T17:15:02.307Z,41.60
2023-04-30T17:17:30.065Z,41.93
2023-04-30T17:19:57.821Z,42.24
2023-04-30T17:22:26.902Z,41.77
2023-04-30T17:24:54.350Z,41.31
2023-04-30T17:27:21.821Z,41.75
2023-04-30T17:29:50.747Z,41.14
2023-04-30T17:32:18.782Z,41.32
2023-04-30T17:34:46.904Z,41.93
2023-04-30T17:37:14.388Z,41.23
2023-04-30T17:39:43.170Z,40.99
2023-04-30T17:42:10.940Z,41.52
2023-04-30T17:44:38.462Z,41.02
2023-04-30T17:47:06.253Z,41.51
2023-04-30T17:49:33.774Z,41.91
2023-04-30T17:52:01.363Z,42.16
2023-04-30T17:54:30.045Z,42.11
2023-04-30T17:56:59.509Z,42.31
2023-04-30T17:59:28.764Z,42.48
2023-04-30T18:01:56.284Z,42.25
2023-04-30T18:04:23.836Z,42.50
2023-04-30T18:06:51.344Z,42.79
2023-04-30T18:09:19.417Z,43.15
2023-04-30T18:11:46.865Z,42.96
2023-04-30T18:14:15.685Z,43.03
2023-04-30T18:16:43.241Z,43.27
2023-04-30T18:19:10.772Z,43.65
2023-04-30T18:21:38.293Z,43.95
2023-04-30T18:24:06.269Z,43.82
2023-04-30T18:26:33.687Z,44.64
2023-04-30T18:29:01.139Z,44.46
2023-04-30T18:31:30.523Z,44.74
2023-04-30T18:33:58.097Z,45.12
2023-04-30T18:36:25.684Z,45.39
2023-04-30T18:38:53.134Z,45.65
2023-04-30T18:41:21.020Z,45.75
2023-04-30T18:43:48.907Z,45.56
2023-04-30T18:46:16.621Z,46.01
2023-04-30T18:48:45.522Z,46.16
2023-04-30T18:51:13.020Z,46.42
2023-04-30T18:53:41.901Z,46.76
2023-04-30T18:56:09.359Z,46.75
2023-04-30T18:58:36.782Z,46.80
2023-04-30T19:01:04.550Z,46.62
2023-04-30T19:03:33.794Z,46.43
2023-04-30T19:06:03.856Z,47.06
2023-04-30T19:08:31.372Z,46.93
2023-04-30T19:10:58.810Z,47.23
2023-04-30T19:13:26.286Z,47.16
2023-04-30T19:15:54.066Z,47.17
2023-04-30T19:18:21.750Z,47.54
2023-04-30T19:20:57.064Z,47.21
2023-04-30T19:23:25.919Z,47.35
2023-04-30T19:25:53.367Z,47.28
2023-04-30T19:28:20.821Z,47.09
2023-04-30T19:30:48.368Z,47.26
2023-04-30T19:33:15.903Z,47.68
2023-04-30T19:35:43.376Z,48.03
2023-04-30T19:38:10.833Z,47.89
2023-04-30T19:40:39.662Z,48.13
2023-04-30T19:43:07.117Z,47.76
2023-04-30T19:45:34.577Z,48.17
2023-04-30T19:48:02.073Z,48.52
2023-04-30T19:50:29.580Z,48.31
2023-04-30T19:52:57.030Z,48.33
2023-04-30T19:55:24.474Z,48.92
2023-04-30T19:57:53.231Z,49.29
2023-04-30T20:00:20.936Z,48.79
2023-04-30T20:02:48.502Z,48.99
2023-04-30T20:05:16.105Z,49.03
2023-04-30T20:07:43.550Z,49.19
2023-04-30T20:10:11.611Z,49.13
2023-04-30T20:12:39.399Z,49.10
2023-04-30T20:15:09.157Z,49.51
2023-04-30T20:17:36.606Z,49.54
2023-04-30T20:20:05.617Z,50.21
2023-04-30T20:22:33.079Z,50.57
2023-04-30T20:25:02.403Z,49.87
2023-04-30T20:27:29.943Z,50.18
2023-04-30T20:29:57.633Z,50.41
2023-04-30T20:32:26.678Z,50.65
2023-04-30T20:34:54.202Z,50.56
2023-04-30T20:37:21.687Z,51.56
2023-04-30T20:39:49.135Z,52.21
2023-04-30T20:42:16.818Z,52.70
2023-04-30T20:44:44.285Z,53.30
2023-04-30T20:47:14.204Z,53.68
2023-04-30T20:49:43.462Z,53.79
2023-04-30T20:52:12.047Z,53.88
2023-04-30T20:54:39.568Z,54.31
2023-04-30T20:57:07.516Z,54.02
2023-04-30T20:59:35.687Z,54.18
2023-04-30T21:02:04.297Z,54.64
2023-04-30T21:04:32.048Z,54.51
2023-04-30T21:07:00.962Z,55.29
2023-04-30T21:09:28.503Z,55.42
2023-04-30T21:11:56.097Z,56.12
2023-04-30T21:14:23.526Z,56.02
2023-04-30T21:16:51.244Z,56.56
2023-04-30T21:19:18.832Z,56.64
2023-04-30T21:21:46.345Z,56.86
2023-04-30T21:24:15.146Z,57.11
2023-04-30T21:26:42.671Z,57.68
2023-04-30T21:29:10.309Z,57.26
2023-04-30T21:31:38.020Z,57.67
2023-04-30T21:34:05.486Z,58.18
2023-04-30T21:36:32.976Z,57.96
2023-04-30T21:39:00.432Z,58.36
2023-04-30T21:41:30.229Z,58.56
2023-04-30T21:43:58.180Z,58.53
2023-04-30T21:46:25.702Z,58.26
2023-04-30T21:48:53.227Z,58.88
2023-04-30T21:51:20.804Z,58.82
2023-04-30T21:53:48.246Z,59.00
2023-04-30T21:56:16.231Z,59.03
2023-04-30T21:58:45.002Z,59.37
2023-04-30T22:01:13.238Z,59.63
2023-04-30T22:03:42.674Z,59.56
2023-04-30T22:06:10.207Z,59.71
2023-04-30T22:08:37.705Z,59.67
2023-04-30T22:11:05.173Z,59.52
2023-04-30T22:13:32.646Z,59.49
2023-04-30T22:16:01.897Z,59.90
2023-04-30T22:18:29.430Z,59.70
2023-04-30T22:20:56.945Z,59.41
2023-04-30T22:23:24.413Z,59.72
2023-04-30T22:25:51.849Z,59.90
2023-04-30T22:28:20.862Z,59.72
2023-04-30T22:30:48.368Z,59.90
2023-04-30T22:33:17.165Z,59.97
2023-04-30T22:35:44.603Z,60.37
2023-04-30T22:38:12.613Z,60.15
2023-04-30T22:40:40.327Z,60.51
2023-04-30T22:43:07.892Z,60.71
2023-04-30T22:45:38.083Z,60.02
2023-04-30T22:48:06.180Z,60.38
2023-04-30T22:50:35.394Z,60.60
2023-04-30T22:53:03.027Z,60.39
2023-04-30T22:55:31.281Z,60.55
2023-04-30T22:57:59.818Z,60.57
2023-04-30T23:00:27.674Z,60.95
2023-04-30T23:02:55.231Z,60.84
2023-04-30T23:05:22.688Z,60.47
2023-04-30T23:07:52.100Z,60.82
2023-04-30T23:10:19.580Z,60.72
2023-04-30T23:12:47.173Z,61.07
2023-04-30T23:15:14.954Z,60.71
2023-04-30T23:17:42.469Z,60.71
2023-04-30T23:20:10.823Z,60.87
2023-04-30T23:22:38.363Z,60.89
2023-04-30T23:25:07.886Z,60.80
2023-04-30T23:27:35.421Z,61.00
2023-04-30T23:30:03.484Z,61.03
2023-04-30T23:32:31.460Z,61.10
2023-04-30T23:34:59.137Z,61.13
2023-04-30T23:37:27.130Z,61.28
2023-04-30T23:39:55.309Z,61.09
2023-04-30T23:42:24.320Z,61.17
2023-04-30T23:44:51.818Z,60.97
2023-04-30T23:47:19.403Z,61.49
2023-04-30T23:49:46.850Z,61.38
2023-04-30T23:52:14.593Z,61.33
2023-04-30T23:54:42.025Z,61.40
2023-04-30T23:57:10.184Z,61.86
2023-04-30T23:59:39.521Z,61.54
